Porthleven, United Kingdom
Current Conditions -  °F | °C
As of 5:50 AM on Friday 19 Dec 2014 (Local Time) from EGDR Reporting Station
Haze Haze  
Wind Chill: 50°   Ceiling: 2000
Heat Index: 50°   Visibility: 6mi
Dew Point: 48°   Wind: 14mph
Humidity: 94%   Direction: 290°WNW
Pressure: 29.97"   Gusts: NA
Location:  50.09°N, 5.32°W
Report Text: EGDR 190550Z 29012KT 9999 HZ FEW007 BKN020 OVC060 10/09 Q1015 RERA WHT
Loading
Personal Weather Stations






























Interactive Weather Map New forecast layout! Learn more

10-Day Weather Forecast

Advertisements
Track Severe Weather on mobile